Manacor, Spain
Current Conditions -  °F | °C
As of 10:30 AM on Thursday 23 Oct 2014 (Local Time) from LEPA Reporting Station
Few Clouds Few Clouds  
Wind Chill: 66°   Ceiling: Unl
Heat Index: 66°   Visibility: 6mi
Dew Point: 57°   Wind: 1mph
Humidity: 73%   Direction: NA
Pressure: 30.15"   Gusts: NA
Location:  39.57°N, 3.2°E
Report Text: LEPA 230830Z VRB01KT 9999 FEW026 19/14 Q1021 NOSIG
Loading
Personal Weather Stations






























Interactive Weather Map
Tropical Storm Tracking
New forecast layout! Learn more

10-Day Weather Forecast

Advertisements
Track Severe Weather on mobile